Time;durP1;ratioP1;P1;durP2;ratioP2;P2;SDS_P1;SDS_P2;PMS_P1;PMS_P2;Temp;Humidity;BMP_temperature;BMP_pressure;BME280_temperature;BME280_humidity;BME280_pressure;Samples;Min_cycle;Max_cycle;Signal;HPM_P1;HPM_P2
2021/11/02 00:00:57;;;;;;;10.90;9.38;;;;;;;10.31;66.49;95054.94;4869782;29;20025;-87
2021/11/02 00:03:23;;;;;;;9.27;8.35;;;;;;;10.16;66.87;95038.06;4863190;29;20041;-88
2021/11/02 00:05:49;;;;;;;9.32;8.38;;;;;;;10.14;66.37;95024.25;4847302;29;20069;-87
2021/11/02 00:08:14;;;;;;;10.57;8.30;;;;;;;9.97;66.55;95010.59;4847086;29;20025;-87
2021/11/02 00:10:41;;;;;;;10.10;8.50;;;;;;;10.31;67.29;95056.91;4846383;29;20750;-87
2021/11/02 00:13:06;;;;;;;9.35;8.35;;;;;;;10.19;66.72;95040.56;4846146;29;20060;-88
2021/11/02 00:15:34;;;;;;;9.50;8.45;;;;;;;10.14;66.76;95026.97;4846248;29;20068;-87
2021/11/02 00:18:03;;;;;;;15.15;8.75;;;;;;;10.25;66.59;95029.00;4846862;29;20521;-87
2021/11/02 00:20:30;;;;;;;11.32;8.68;;;;;;;10.32;66.03;95045.56;4862686;29;20414;-87
2021/11/02 00:22:57;;;;;;;10.10;7.93;;;;;;;10.30;66.68;95041.88;4863049;29;20104;-86
2021/11/02 00:25:28;;;;;;;11.05;8.20;;;;;;;10.07;67.18;95008.44;4846521;29;20129;-86
2021/11/02 00:27:53;;;;;;;;;;;;;;;10.32;67.45;95051.00;4863250;29;20036;-87
2021/11/02 00:30:21;;;;;;;9.00;6.32;;;;;;;10.14;67.13;95024.25;4847431;29;20289;-87
2021/11/02 00:32:50;;;;;;;6.25;5.63;;;;;;;10.00;67.91;94996.06;4845895;29;20025;-86
2021/11/02 00:35:16;;;;;;;5.05;4.55;;;;;;;10.26;68.27;95030.50;4861553;29;20044;-86
2021/11/02 00:37:43;;;;;;;7.40;5.80;;;;;;;10.30;67.96;95031.75;4850852;29;20033;-87
2021/11/02 00:40:11;;;;;;;6.28;5.18;;;;;;;10.08;68.23;94994.38;4828029;29;20030;-86
2021/11/02 00:42:42;;;;;;;6.72;5.30;;;;;;;9.99;69.45;94964.75;4842687;29;20034;-87
2021/11/02 00:45:11;;;;;;;8.38;6.47;;;;;;;10.40;68.97;95018.72;4842788;29;20037;-88
2021/11/02 00:47:37;;;;;;;6.38;5.50;;;;;;;10.03;69.37;94975.38;4842519;29;20109;-87
2021/11/02 00:50:14;;;;;;;7.07;5.82;;;;;;;10.14;70.12;94995.16;4842913;29;20061;-87
2021/11/02 00:52:40;;;;;;;5.88;5.28;;;;;;;10.10;70.62;94999.31;4842670;29;20472;-87
2021/11/02 00:55:07;;;;;;;4.30;3.90;;;;;;;10.28;70.20;95023.38;4842888;29;20060;-86
2021/11/02 00:57:34;;;;;;;5.63;4.32;;;;;;;10.11;70.43;94995.38;4842678;29;20091;-86
2021/11/02 01:00:00;;;;;;;5.25;4.55;;;;;;;10.07;71.56;94989.44;4844054;29;20030;-87
2021/11/02 01:02:25;;;;;;;4.85;4.30;;;;;;;10.19;71.89;95010.72;4842433;29;20547;-86
2021/11/02 01:04:51;;;;;;;6.15;4.38;;;;;;;10.01;71.69;94983.97;4842347;29;20030;-86
2021/11/02 01:07:17;;;;;;;4.75;4.25;;;;;;;9.95;73.09;94978.53;4842454;29;20052;-87
2021/11/02 01:09:44;;;;;;;4.65;4.25;;;;;;;10.13;73.05;94999.09;4827405;29;20030;-87
2021/11/02 01:12:11;;;;;;;4.00;3.60;;;;;;;10.06;72.96;94988.69;4842486;29;20522;-87
2021/11/02 01:14:38;;;;;;;4.32;3.90;;;;;;;9.99;72.16;94975.59;4844480;29;20030;-87
2021/11/02 01:17:04;;;;;;;4.38;3.97;;;;;;;9.97;73.26;94969.94;4860934;29;20120;-87
2021/11/02 01:19:29;;;;;;;4.20;3.65;;;;;;;10.01;73.51;94975.84;4860740;29;20505;-87
2021/11/02 01:21:55;;;;;;;4.38;3.83;;;;;;;9.99;72.95;94962.03;4845180;29;20033;-87
2021/11/02 01:24:21;;;;;;;4.20;3.80;;;;;;;10.01;73.30;94951.44;4843776;29;20030;-86
2021/11/02 01:26:47;;;;;;;4.13;3.50;;;;;;;9.88;73.17;94934.88;4859833;29;20030;-87
2021/11/02 01:29:15;;;;;;;4.70;3.83;;;;;;;9.92;72.86;94940.81;4861026;29;20130;-87
2021/11/02 01:31:41;;;;;;;3.90;3.13;;;;;;;9.95;73.49;94937.84;4862741;29;20101;-87
2021/11/02 01:34:08;;;;;;;4.25;3.85;;;;;;;9.72;73.36;94909.16;4880197;29;20021;-87
2021/11/02 01:36:33;;;;;;;4.00;3.60;;;;;;;9.75;73.51;94918.28;4880266;29;20033;-87
2021/11/02 01:38:59;;;;;;;4.45;3.88;;;;;;;9.69;73.92;94902.75;4863457;29;20021;-86
2021/11/02 01:41:25;;;;;;;4.15;3.75;;;;;;;9.69;73.35;94902.75;4864589;29;20532;-87
2021/11/02 01:43:53;;;;;;;3.88;3.47;;;;;;;9.89;74.11;94928.22;4880440;29;20459;-87
2021/11/02 01:46:28;;;;;;;4.85;3.83;;;;;;;10.02;73.71;94936.66;4863436;29;20093;-87
2021/11/02 01:48:56;;;;;;;4.10;3.70;;;;;;;9.94;73.79;94927.50;4863785;29;20121;-87
2021/11/02 01:51:23;;;;;;;4.20;3.60;;;;;;;9.80;73.72;94907.47;4863845;29;20085;-87
2021/11/02 01:53:50;;;;;;;4.00;3.60;;;;;;;9.96;74.23;94933.94;4863627;29;20123;-87
2021/11/02 01:56:18;;;;;;;4.13;3.72;;;;;;;9.87;73.60;94914.41;4863660;29;20037;-87
2021/11/02 01:58:46;;;;;;;4.22;3.83;;;;;;;9.97;74.08;94929.25;4864012;29;20032;-87
2021/11/02 02:01:18;;;;;;;4.30;3.90;;;;;;;9.85;73.79;94912.16;4867502;29;20124;-87
2021/11/02 02:04:01;;;;;;;5.10;4.60;;;;;;;9.84;73.85;94894.41;4867471;29;20025;-87
2021/11/02 02:06:42;;;;;;;5.75;5.20;;;;;;;9.90;73.79;94910.69;4883847;29;20033;-87
2021/11/02 02:09:22;;;;;;;4.93;4.40;;;;;;;10.01;73.72;94923.56;4883828;29;20033;-88
2021/11/02 02:12:06;;;;;;;5.30;4.57;;;;;;;9.97;73.32;94918.38;4866879;29;20794;-87
2021/11/02 02:14:36;;;;;;;6.15;4.88;;;;;;;9.96;73.96;94906.06;4867352;29;20036;-87
2021/11/02 02:17:02;;;;;;;5.80;5.00;;;;;;;9.81;73.80;94881.09;4845146;29;20510;-87
2021/11/02 02:19:49;;;;;;;5.72;4.50;;;;;;;9.95;74.31;94905.31;4829959;29;20502;-86
2021/11/02 02:22:40;;;;;;;4.70;4.20;;;;;;;9.86;74.17;94889.25;4829907;29;20062;-87
2021/11/02 02:25:30;;;;;;;4.43;3.92;;;;;;;9.88;74.46;94907.75;4845732;29;20046;-87
2021/11/02 02:28:15;;;;;;;;;;;;;;;9.92;73.66;94906.28;4830127;29;20041;-87
2021/11/02 02:31:09;;;;;;;4.70;4.20;;;;;;;9.90;73.80;94899.84;4864291;29;19915;-87
2021/11/02 02:33:46;;;;;;;4.80;4.30;;;;;;;9.75;74.23;94875.66;4864565;29;20512;-87
2021/11/02 02:36:14;;;;;;;4.75;4.07;;;;;;;9.91;74.17;94904.81;4882884;29;20029;-87
2021/11/02 02:38:42;;;;;;;4.78;4.10;;;;;;;9.90;74.52;94905.28;4866486;29;20037;-88
2021/11/02 02:41:11;;;;;;;5.25;4.35;;;;;;;9.73;73.73;94878.09;4866650;29;20028;-88
2021/11/02 02:43:40;;;;;;;4.43;3.88;;;;;;;9.85;74.45;94898.59;4882905;29;20104;-88
2021/11/02 02:46:08;;;;;;;12.60;4.80;;;;;;;9.71;73.89;94892.16;4866572;29;20029;-88
2021/11/02 02:48:34;;;;;;;4.88;4.32;;;;;;;9.78;74.43;94903.75;4866323;29;20037;-88
2021/11/02 02:51:01;;;;;;;5.32;4.60;;;;;;;9.76;73.59;94900.81;4866252;29;20032;-88
2021/11/02 02:53:29;;;;;;;5.03;4.53;;;;;;;9.71;73.98;94892.16;4866186;29;20810;-87
2021/11/02 02:55:59;;;;;;;5.70;4.65;;;;;;;9.55;73.78;94865.72;4882906;29;20025;-88
2021/11/02 02:58:31;;;;;;;5.53;4.93;;;;;;;9.79;74.09;94883.53;4866224;29;20036;-88
2021/11/02 03:00:57;;;;;;;6.63;4.80;;;;;;;9.90;73.76;94897.88;4866578;29;20065;-88
2021/11/02 03:03:24;;;;;;;37.80;6.70;;;;;;;9.92;74.61;94900.13;4881646;29;20120;-88
2021/11/02 03:05:53;;;;;;;6.65;5.00;;;;;;;9.83;73.17;94870.50;4865842;29;20036;-87
2021/11/02 03:08:20;;;;;;;6.60;5.20;;;;;;;9.88;73.00;94883.34;4866110;29;20037;-87
2021/11/02 03:10:49;;;;;;;5.43;4.90;;;;;;;9.93;73.65;94885.34;4865139;29;20049;-87
2021/11/02 03:13:16;;;;;;;6.05;5.18;;;;;;;9.85;73.16;94871.47;4865863;29;20073;-87
2021/11/02 03:16:00;;;;;;;5.70;5.00;;;;;;;9.95;73.38;94889.03;4865837;29;20029;-88
2021/11/02 03:19:17;;;;;;;5.30;4.50;;;;;;;9.90;73.96;94872.72;4865840;29;20494;-87
2021/11/02 03:57:19;;;;;;;5.93;5.32;;;;;;;9.79;73.84;94813.78;4881856;29;20451;-88
2021/11/02 04:35:14;;;;;;;8.25;7.03;;;;;;;9.59;75.03;94762.50;4871430;29;20093;-87
2021/11/02 05:11:08;;;;;;;16.50;12.48;;;;;;;9.55;74.45;94738.31;4862251;29;20415;-87
2021/11/02 05:59:50;;;;;;;9.77;8.07;;;;;;;9.48;74.77;94759.72;4862371;29;20040;-88
2021/11/02 06:30:08;;;;;;;10.73;9.55;;;;;;;9.38;75.76;94776.22;4881402;29;20028;-88
2021/11/02 06:32:37;;;;;;;12.10;9.43;;;;;;;9.38;75.65;94772.78;4881795;29;20460;-89
2021/11/02 06:35:19;;;;;;;10.73;9.25;;;;;;;9.43;75.93;94783.63;4866320;29;20077;-88
2021/11/02 06:54:11;;;;;;;16.85;13.13;;;;;;;9.42;76.00;94784.09;4864428;29;20033;-88
2021/11/02 07:25:35;;;;;;;19.30;15.68;;;;;;;9.55;75.34;94780.94;4847733;29;20041;-89
2021/11/02 08:47:25;;;;;;;12.13;9.60;;;;;;;9.81;71.74;94753.66;4860216;29;20040;-88
2021/11/02 08:49:51;;;;;;;12.43;9.55;;;;;;;9.65;71.44;94730.72;4830695;29;20117;-89
2021/11/02 08:52:18;;;;;;;10.57;9.30;;;;;;;9.84;72.70;94758.09;4833039;29;20148;-88
2021/11/02 08:54:48;;;;;;;13.00;11.60;;;;;;;9.73;73.14;94739.84;4842647;29;20623;-88
2021/11/02 08:57:14;;;;;;;15.07;12.32;;;;;;;9.83;72.20;94753.91;4845292;29;20034;-88
2021/11/02 08:59:39;;;;;;;15.15;11.85;;;;;;;9.65;72.58;94730.72;4845192;29;20037;-88
2021/11/02 09:02:10;;;;;;;13.48;12.02;;;;;;;9.66;72.69;94730.22;4860778;29;20085;-89
2021/11/02 09:04:45;;;;;;;21.75;12.60;;;;;;;9.74;72.56;94730.47;4845460;29;20073;-89
2021/11/02 09:07:20;;;;;;;15.15;12.38;;;;;;;9.84;72.75;94752.66;4844856;29;20456;-88
2021/11/02 09:09:50;;;;;;;14.40;11.55;;;;;;;9.67;72.65;94731.69;4863739;29;20040;-88
2021/11/02 09:12:17;;;;;;;12.87;10.83;;;;;;;9.81;71.74;94735.44;4837024;29;20054;-88
2021/11/02 09:14:45;;;;;;;12.15;10.52;;;;;;;9.85;72.12;94748.72;4871113;29;20045;-88
2021/11/02 09:17:13;;;;;;;12.52;11.05;;;;;;;9.77;72.88;94743.06;4840962;29;20033;-88
2021/11/02 09:19:39;;;;;;;13.02;10.52;;;;;;;9.86;72.94;94752.94;4850487;29;20160;-87
2021/11/02 09:22:11;;;;;;;13.20;10.95;;;;;;;9.76;73.22;94733.44;4858132;29;20538;-88
2021/11/02 09:24:42;;;;;;;13.25;10.93;;;;;;;9.63;72.56;94720.34;4855739;29;20471;-88
2021/11/02 09:27:09;;;;;;;12.68;10.63;;;;;;;9.64;72.75;94710.25;4859852;29;20067;-88
2021/11/02 09:29:38;;;;;;;13.23;10.45;;;;;;;9.89;72.88;94751.94;4844887;29;20120;-88
2021/11/02 09:32:08;;;;;;;13.48;10.43;;;;;;;9.96;72.63;94754.94;4861756;29;20033;-88
2021/11/02 09:34:34;;;;;;;12.77;10.85;;;;;;;9.91;72.92;94742.09;4861177;29;20746;-88
2021/11/02 09:37:33;;;;;;;12.90;10.60;;;;;;;10.01;71.97;94756.13;4844674;29;20516;-89
2021/11/02 09:40:27;;;;;;;13.05;10.40;;;;;;;9.94;72.18;94756.63;4863245;29;20029;-88
2021/11/02 09:43:10;;;;;;;13.73;11.05;;;;;;;10.03;72.54;94752.97;4852951;29;20164;-88
2021/11/02 09:46:05;;;;;;;12.50;10.65;;;;;;;10.05;72.61;94753.94;4845156;29;20057;-87
2021/11/02 09:48:53;;;;;;;14.25;11.18;;;;;;;10.06;71.90;94752.69;4842909;29;20045;-88
2021/11/02 09:51:37;;;;;;;13.35;10.70;;;;;;;10.07;72.41;94751.47;4861593;29;20052;-89
2021/11/02 09:54:37;;;;;;;12.75;10.75;;;;;;;9.98;72.43;94736.19;4848160;29;20029;-88
2021/11/02 09:57:13;;;;;;;14.02;11.35;;;;;;;10.08;72.59;94746.78;4844448;29;20033;-88
2021/11/02 10:00:28;;;;;;;14.38;11.10;;;;;;;10.10;72.42;94734.22;4844806;29;20454;-88
2021/11/02 10:03:28;;;;;;;12.32;10.82;;;;;;;10.01;72.24;94712.75;4826368;29;20045;-88
2021/11/02 10:06:27;;;;;;;13.65;10.85;;;;;;;10.22;72.03;94724.84;4827829;29;20166;-88
2021/11/02 10:09:05;;;;;;;13.38;10.25;;;;;;;10.28;72.11;94714.03;4861596;29;20504;-87
2021/11/02 10:11:38;;;;;;;13.20;10.55;;;;;;;10.28;72.38;94714.03;4844000;29;20042;-87
2021/11/02 10:14:46;;;;;;;13.40;9.95;;;;;;;10.38;71.86;94722.63;4861274;29;20033;-87
2021/11/02 10:17:35;;;;;;;11.88;10.15;;;;;;;10.41;71.07;94730.53;4844735;29;20557;-88
2021/11/02 10:20:18;;;;;;;11.38;9.75;;;;;;;10.29;71.53;94712.78;4845194;29;20033;-88
2021/11/02 10:23:01;;;;;;;14.32;10.82;;;;;;;10.45;70.59;94724.88;4853431;29;20034;-88
2021/11/02 10:25:51;;;;;;;15.10;11.32;;;;;;;10.29;71.14;94701.19;4840304;29;20037;-87
2021/11/02 10:28:35;;;;;;;17.83;13.80;;;;;;;10.44;72.20;94723.41;4845104;29;20387;-88
2021/11/02 10:31:31;;;;;;;19.35;14.38;;;;;;;10.36;72.05;94706.84;4844179;29;20038;-88
2021/11/02 10:34:11;;;;;;;17.15;13.30;;;;;;;10.45;72.51;94720.19;4857815;29;20065;-88
2021/11/02 10:36:55;;;;;;;16.05;13.35;;;;;;;10.48;70.65;94719.16;4847881;29;20029;-88
2021/11/02 10:39:35;;;;;;;17.52;13.45;;;;;;;10.40;71.22;94715.50;4847163;29;20036;-87
2021/11/02 10:42:18;;;;;;;15.45;11.45;;;;;;;10.51;69.23;94722.88;4846682;29;20026;-88
2021/11/02 10:44:49;;;;;;;18.33;12.40;;;;;;;10.52;70.40;94716.22;4844618;29;20053;-88
2021/11/02 10:47:25;;;;;;;15.88;11.80;;;;;;;10.48;69.97;94716.44;4838910;29;20040;-87
2021/11/02 10:50:05;;;;;;;15.93;11.70;;;;;;;10.58;70.69;94711.50;4836807;29;20030;-88
2021/11/02 10:52:32;;;;;;;15.27;12.63;;;;;;;10.61;70.68;94710.53;4828809;29;20042;-87
2021/11/02 10:55:21;;;;;;;16.20;13.43;;;;;;;10.64;70.81;94706.81;4836662;29;20402;-87
2021/11/02 10:58:34;;;;;;;15.90;12.57;;;;;;;10.69;70.63;94706.06;4862720;29;20045;-88
2021/11/02 11:01:21;;;;;;;15.25;12.32;;;;;;;10.73;69.93;94705.81;4847772;29;20057;-87
2021/11/02 11:03:49;;;;;;;16.48;12.00;;;;;;;10.63;69.38;94689.03;4860674;29;20029;-87
2021/11/02 11:06:16;;;;;;;15.40;11.93;;;;;;;10.75;69.69;94708.75;4870168;29;20030;-88
2021/11/02 11:08:43;;;;;;;13.98;11.65;;;;;;;10.64;69.71;94687.81;4876632;29;20055;-88
2021/11/02 11:11:11;;;;;;;14.70;11.90;;;;;;;10.66;70.10;94690.03;4848108;29;20173;-87
2021/11/02 11:13:38;;;;;;;13.52;11.98;;;;;;;10.69;69.72;94692.47;4863706;29;20057;-88
2021/11/02 11:16:07;;;;;;;15.23;11.93;;;;;;;10.80;69.77;94704.53;4848368;29;20383;-87
2021/11/02 11:19:05;;;;;;;14.13;11.85;;;;;;;10.76;70.29;94685.81;4839412;29;20026;-87
2021/11/02 11:21:35;;;;;;;15.63;12.23;;;;;;;10.80;69.22;94686.28;4857931;29;20097;-87
2021/11/02 11:24:12;;;;;;;17.25;12.57;;;;;;;10.83;69.36;94701.59;4837329;29;20022;-88
2021/11/02 11:26:46;;;;;;;15.98;12.27;;;;;;;10.75;69.55;94685.06;4832068;29;20116;-87
2021/11/02 11:29:17;;;;;;;17.52;12.73;;;;;;;10.74;69.85;94691.00;4845691;29;20062;-88
2021/11/02 11:31:42;;;;;;;18.10;13.30;;;;;;;10.64;69.80;94678.91;4851097;29;20026;-88
2021/11/02 11:34:09;;;;;;;16.92;13.20;;;;;;;10.66;69.37;94677.19;4830288;29;20030;-87
2021/11/02 11:36:40;;;;;;;18.98;14.43;;;;;;;10.69;69.59;94670.03;4837348;29;20041;-87
2021/11/02 11:39:06;;;;;;;15.73;13.55;;;;;;;10.73;69.09;94662.38;4853595;29;20028;-88
2021/11/02 11:41:36;;;;;;;18.02;13.50;;;;;;;10.88;69.27;94679.09;4853685;29;20063;-88
2021/11/02 11:44:05;;;;;;;16.00;13.07;;;;;;;10.75;68.16;94655.19;4855005;29;20105;-87
2021/11/02 11:46:32;;;;;;;16.17;13.65;;;;;;;10.91;68.42;94648.22;4844423;29;20038;-87
2021/11/02 11:48:59;;;;;;;20.80;15.80;;;;;;;11.15;68.40;94665.91;4834505;29;20041;-88
2021/11/02 11:51:28;;;;;;;15.43;13.52;;;;;;;11.20;68.62;94662.44;4847065;29;20129;-87
2021/11/02 11:54:02;;;;;;;16.55;13.68;;;;;;;11.13;68.85;94644.69;4833665;29;20049;-87
2021/11/02 11:56:33;;;;;;;18.08;13.48;;;;;;;11.07;67.56;94635.06;4862995;29;20093;-88
2021/11/02 11:59:02;;;;;;;17.73;13.38;;;;;;;11.29;68.74;94659.41;4826421;29;20069;-87
2021/11/02 12:01:49;;;;;;;18.05;14.35;;;;;;;11.30;67.56;94654.72;4843869;29;20040;-88
2021/11/02 12:04:49;;;;;;;17.75;13.68;;;;;;;11.35;68.12;94656.69;4856716;29;20054;-87
2021/11/02 12:07:33;;;;;;;15.52;12.68;;;;;;;11.28;66.66;94652.50;4842814;29;20071;-87
2021/11/02 12:10:06;;;;;;;18.60;12.63;;;;;;;11.23;66.46;94655.97;4843332;29;20098;-87
2021/11/02 12:12:34;;;;;;;17.88;13.10;;;;;;;11.30;66.72;94663.63;4859540;29;20141;-87
2021/11/02 12:15:06;;;;;;;15.80;12.70;;;;;;;11.23;67.30;94653.25;4851040;29;20045;-87
2021/11/02 12:17:34;;;;;;;16.52;13.43;;;;;;;11.04;67.50;94633.38;4842595;29;20129;-87
2021/11/02 12:20:02;;;;;;;18.15;13.68;;;;;;;11.20;67.81;94657.72;4859996;29;20439;-87
2021/11/02 12:22:33;;;;;;;18.25;13.57;;;;;;;11.17;66.74;94658.72;4845708;29;20030;-87
2021/11/02 12:25:04;;;;;;;16.77;13.27;;;;;;;11.01;66.29;94635.81;4845710;29;20062;-88
2021/11/02 12:27:40;;;;;;;;;;;;;;;11.12;66.17;94647.88;4844831;29;20145;-88
2021/11/02 12:30:09;;;;;;;14.55;12.98;;;;;;;11.04;67.47;94639.53;4847076;29;19920;-88
2021/11/02 12:32:35;;;;;;;14.35;12.85;;;;;;;11.04;66.37;94642.25;4845282;29;20025;-91
2021/11/02 12:35:05;;;;;;;14.27;12.70;;;;;;;10.94;66.63;94620.06;4844737;29;20022;-88
2021/11/02 12:37:32;;;;;;;22.55;13.95;;;;;;;10.93;67.64;94624.03;4860387;29;20033;-88
2021/11/02 12:40:16;;;;;;;15.52;13.27;;;;;;;10.88;69.10;94622.06;4849617;29;20025;-88
2021/11/02 12:42:44;;;;;;;27.15;13.77;;;;;;;10.90;70.79;94619.56;4830435;29;20148;-87
2021/11/02 12:45:11;;;;;;;16.55;13.70;;;;;;;10.87;73.22;94617.16;4828052;29;20050;-89
2021/11/02 12:47:39;;;;;;;18.15;14.15;;;;;;;10.77;72.50;94622.13;4827089;29;20085;-88
2021/11/02 12:50:07;;;;;;;16.15;13.55;;;;;;;10.70;70.18;94623.34;4856924;29;20025;-88
2021/11/02 12:52:38;;;;;;;18.13;14.32;;;;;;;10.81;71.15;94641.59;4838787;29;20038;-88
2021/11/02 12:55:24;;;;;;;17.55;13.85;;;;;;;10.76;70.37;94634.22;4842721;29;20125;-89
2021/11/02 12:57:59;;;;;;;17.75;14.57;;;;;;;10.74;70.43;94623.84;4842410;29;20057;-89
2021/11/02 13:00:28;;;;;;;21.45;15.77;;;;;;;10.67;71.85;94629.06;4842261;29;20098;-89
2021/11/02 13:02:59;;;;;;;19.17;15.60;;;;;;;10.81;71.12;94638.88;4856597;29;20081;-89
2021/11/02 13:05:27;;;;;;;20.50;14.95;;;;;;;10.60;71.19;94616.75;4860801;29;20069;-88
2021/11/02 13:08:11;;;;;;;18.20;15.38;;;;;;;10.74;71.83;94650.25;4856983;29;20029;-89
2021/11/02 13:10:39;;;;;;;21.95;16.23;;;;;;;10.67;73.84;94651.53;4851955;29;20034;-88
2021/11/02 13:13:14;;;;;;;20.40;15.85;;;;;;;10.59;73.07;94641.66;4840163;29;20034;-88
2021/11/02 13:15:53;;;;;;;21.00;15.68;;;;;;;10.53;74.25;94640.94;4859633;29;20036;-87
2021/11/02 13:18:39;;;;;;;21.63;15.63;;;;;;;10.58;74.53;94651.06;4847582;29;20041;-87
2021/11/02 13:21:22;;;;;;;19.13;14.73;;;;;;;10.61;74.60;94658.22;4851201;29;20038;-87
2021/11/02 13:24:03;;;;;;;24.02;16.45;;;;;;;10.56;76.11;94650.81;4840104;29;20025;-88
2021/11/02 13:26:29;;;;;;;22.00;17.25;;;;;;;10.43;75.87;94626.91;4834271;29;20041;-87
2021/11/02 13:29:12;;;;;;;24.05;17.25;;;;;;;10.48;76.75;94651.31;4841900;29;20774;-88
2021/11/02 13:31:38;;;;;;;22.73;17.20;;;;;;;10.34;76.05;94627.94;4842554;29;20415;-88
2021/11/02 13:34:07;;;;;;;22.25;17.33;;;;;;;10.37;77.39;94653.31;4840944;29;20041;-88
2021/11/02 13:36:33;;;;;;;22.85;17.90;;;;;;;10.30;78.34;94657.28;4848171;29;20129;-88
2021/11/02 13:39:04;;;;;;;22.63;17.38;;;;;;;10.15;78.31;94657.50;4853174;29;20021;-87
2021/11/02 13:41:39;;;;;;;21.10;17.25;;;;;;;10.06;78.83;94654.31;4827481;29;20041;-88
2021/11/02 13:44:07;;;;;;;21.40;17.10;;;;;;;10.13;78.60;94672.81;4846759;29;20131;-87
2021/11/02 13:46:36;;;;;;;21.85;18.15;;;;;;;10.13;78.79;94680.97;4837108;29;20702;-87
2021/11/02 13:49:03;;;;;;;22.15;18.02;;;;;;;10.11;78.38;94678.72;4839819;29;20041;-88
2021/11/02 13:51:29;;;;;;;24.48;18.85;;;;;;;9.93;79.04;94647.41;4850322;29;20543;-87
2021/11/02 13:53:54;;;;;;;24.00;18.60;;;;;;;10.10;80.12;94676.50;4839836;29;20033;-88
2021/11/02 13:56:24;;;;;;;20.92;17.08;;;;;;;9.99;78.98;94658.25;4848920;29;20062;-88
2021/11/02 13:58:50;;;;;;;25.58;19.13;;;;;;;9.94;78.86;94659.00;4852626;29;20029;-88
2021/11/02 14:01:39;;;;;;;24.08;18.58;;;;;;;10.11;79.26;94684.16;4842662;29;20041;-88
2021/11/02 14:04:23;;;;;;;25.90;20.08;;;;;;;10.10;79.06;94674.53;4834131;29;20104;-88
2021/11/02 14:07:11;;;;;;;26.85;20.27;;;;;;;10.06;79.37;94678.72;4853845;29;20460;-88
2021/11/02 14:09:44;;;;;;;26.95;20.52;;;;;;;10.06;79.86;94673.28;4853597;29;20034;-88
2021/11/02 14:12:55;;;;;;;25.88;21.63;;;;;;;10.02;80.24;94672.81;4839463;29;20057;-87
2021/11/02 14:15:22;;;;;;;26.13;20.20;;;;;;;9.80;79.86;94659.97;4853077;29;20045;-88
2021/11/02 14:17:54;;;;;;;29.85;21.58;;;;;;;9.91;80.45;94679.00;4854046;29;20032;-88
2021/11/02 14:20:50;;;;;;;25.58;21.08;;;;;;;9.90;80.95;94677.50;4852724;29;20811;-88
2021/11/02 14:23:21;;;;;;;29.38;21.55;;;;;;;9.91;80.73;94679.00;4856236;29;20120;-89
2021/11/02 14:25:46;;;;;;;;;;;;;;;9.88;80.95;94677.25;4844535;29;20045;-88
2021/11/02 14:28:31;;;;;;;25.20;20.88;;;;;;;9.74;81.00;94656.53;4848825;29;19984;-89
2021/11/02 14:30:56;;;;;;;28.63;20.98;;;;;;;9.61;81.60;94651.59;4845561;29;20035;-90
2021/11/02 14:33:44;;;;;;;23.45;20.20;;;;;;;9.66;81.64;94656.28;4847485;29;20034;-90
2021/11/02 14:36:09;;;;;;;24.70;20.23;;;;;;;9.66;81.24;94646.19;4853174;29;20033;-89
2021/11/02 14:38:46;;;;;;;27.70;20.92;;;;;;;9.72;81.52;94643.47;4858305;29;20038;-89
2021/11/02 14:41:31;;;;;;;30.08;22.33;;;;;;;9.65;81.76;94644.72;4844185;29;20034;-89
2021/11/02 14:44:18;;;;;;;27.20;21.95;;;;;;;9.78;81.35;94665.91;4840140;29;20026;-89
2021/11/02 14:46:44;;;;;;;24.73;20.67;;;;;;;9.73;81.80;94668.63;4847704;29;20085;-88
2021/11/02 14:49:30;;;;;;;27.33;22.08;;;;;;;9.71;81.97;94669.84;4853157;29;20029;-89
2021/11/02 14:51:57;;;;;;;29.48;23.83;;;;;;;9.65;81.64;94655.56;4854158;29;20053;-89
2021/11/02 14:54:29;;;;;;;29.17;23.48;;;;;;;9.73;82.42;94665.91;4843769;29;20029;-89
2021/11/02 14:57:15;;;;;;;30.60;23.83;;;;;;;9.65;82.60;94658.25;4843679;29;20040;-89
2021/11/02 14:59:54;;;;;;;28.52;22.73;;;;;;;9.70;82.58;94673.06;4839293;29;20030;-89
2021/11/02 15:02:40;;;;;;;27.05;22.13;;;;;;;9.63;82.70;94674.25;4850023;29;20037;-89
2021/11/02 15:05:10;;;;;;;27.48;23.08;;;;;;;9.50;82.55;94646.91;4845496;29;20566;-89
2021/11/02 15:07:40;;;;;;;29.90;24.07;;;;;;;9.53;82.64;94653.31;4833446;29;20046;-89
2021/11/02 15:10:08;;;;;;;31.83;24.77;;;;;;;9.67;82.53;94674.75;4846654;29;20038;-90
2021/11/02 15:12:35;;;;;;;30.83;23.88;;;;;;;9.47;82.66;94664.13;4848562;29;20140;-90
2021/11/02 15:15:02;;;;;;;28.50;23.55;;;;;;;9.45;82.66;94647.63;4845136;29;20029;-89
2021/11/02 15:17:28;;;;;;;29.13;23.35;;;;;;;9.64;83.04;94683.91;4834982;29;20041;-89
2021/11/02 15:19:53;;;;;;;30.88;24.13;;;;;;;9.44;83.22;94655.03;4832707;29;20411;-88
2021/11/02 15:22:20;;;;;;;29.60;24.08;;;;;;;9.55;82.95;94675.25;4851342;29;20034;-91
2021/11/02 15:25:00;;;;;;;29.45;24.80;;;;;;;9.55;83.12;94681.41;4842768;29;20108;-90
2021/11/02 15:27:33;;;;;;;31.73;26.13;;;;;;;9.58;82.93;94690.53;4854048;29;20033;-89
2021/11/02 15:30:03;;;;;;;32.85;26.90;;;;;;;9.56;82.93;94693.00;4852756;29;20422;-89
2021/11/02 15:32:44;;;;;;;35.65;27.48;;;;;;;9.55;83.49;94697.69;4837596;29;20029;-90
2021/11/02 15:35:15;;;;;;;37.15;29.08;;;;;;;9.42;83.76;94679.16;4865509;29;20603;-88
2021/11/02 15:37:43;;;;;;;37.17;28.17;;;;;;;9.41;83.83;94682.38;4848884;29;20129;-89
2021/11/02 15:40:12;;;;;;;39.25;28.55;;;;;;;9.56;84.54;94717.38;4860583;29;20505;-88
2021/11/02 15:42:41;;;;;;;36.65;28.98;;;;;;;9.37;83.34;94693.44;4842314;29;20030;-89
2021/11/02 15:45:13;;;;;;;36.78;27.95;;;;;;;9.41;83.85;94704.03;4848681;29;20483;-88
2021/11/02 15:47:49;;;;;;;37.58;28.15;;;;;;;9.55;83.74;94727.50;4838838;29;20145;-88
2021/11/02 15:50:17;;;;;;;33.08;27.40;;;;;;;9.54;83.16;94725.28;4840654;29;20313;-88
2021/11/02 15:52:42;;;;;;;33.00;26.63;;;;;;;9.42;83.07;94708.97;4842816;29;20033;-88
2021/11/02 15:55:12;;;;;;;33.33;27.15;;;;;;;9.40;83.73;94716.84;4848246;29;20040;-88
2021/11/02 15:57:53;;;;;;;33.25;26.75;;;;;;;9.38;83.89;94716.59;4834904;29;20061;-88
2021/11/02 16:00:25;;;;;;;34.83;26.58;;;;;;;9.46;83.71;94735.84;4844215;29;20487;-88
2021/11/02 16:02:51;;;;;;;34.65;27.10;;;;;;;9.48;83.56;94741.53;4827839;29;20041;-89
2021/11/02 16:05:22;;;;;;;36.78;28.23;;;;;;;9.50;83.66;94741.03;4840709;29;20033;-88
2021/11/02 16:07:48;;;;;;;36.13;28.33;;;;;;;9.40;83.89;94735.06;4847686;29;20037;-88
2021/11/02 16:10:16;;;;;;;34.90;27.50;;;;;;;9.42;84.08;94748.88;4851381;29;20029;-88
2021/11/02 16:12:45;;;;;;;40.22;29.02;;;;;;;9.39;84.25;94749.84;4870051;29;20411;-88
2021/11/02 16:15:17;;;;;;;34.58;27.17;;;;;;;9.39;84.01;94741.72;4846677;29;20833;-88
2021/11/02 16:17:46;;;;;;;41.00;31.20;;;;;;;9.41;84.39;94756.25;4850429;29;20029;-88
2021/11/02 16:20:38;;;;;;;37.05;30.67;;;;;;;9.31;84.37;94738.72;4855927;29;20440;-87
2021/11/02 16:23:16;;;;;;;37.65;29.95;;;;;;;9.24;84.41;94731.09;4858102;29;20483;-88
2021/11/02 16:25:57;;;;;;;37.17;30.75;;;;;;;9.27;84.48;94751.78;4839068;29;20044;-88
2021/11/02 16:28:32;;;;;;;38.08;29.67;;;;;;;9.19;84.31;94735.25;4845771;29;20056;-88
2021/11/02 16:31:09;;;;;;;39.55;29.83;;;;;;;9.19;84.67;94743.38;4849437;29;20021;-88
2021/11/02 16:33:43;;;;;;;37.25;29.20;;;;;;;9.36;84.21;94756.97;4851692;29;20471;-89
2021/11/02 16:36:27;;;;;;;;;;;;;;;;;;;;;
2021/11/02 16:42:09;;;;;;;41.47;33.05;;;;;;;9.24;85.06;94776.41;4834728;29;20507;-91
2021/11/02 16:44:49;;;;;;;44.78;33.72;;;;;;;9.27;85.12;94788.97;4851420;29;20036;-90
2021/11/02 16:47:34;;;;;;;41.67;33.35;;;;;;;9.31;85.07;94794.88;4846883;29;20024;-90
2021/11/02 16:50:07;;;;;;;38.53;31.40;;;;;;;9.34;84.52;94793.94;4842547;29;20033;-88
2021/11/02 16:52:33;;;;;;;40.30;31.48;;;;;;;9.20;84.76;94765.78;4847804;29;20025;-89
2021/11/02 16:55:14;;;;;;;33.53;27.90;;;;;;;9.18;85.02;94763.56;4848260;29;20037;-87
2021/11/02 16:57:40;;;;;;;37.75;29.58;;;;;;;9.16;85.14;94760.63;4851170;29;20032;-88
2021/11/02 17:00:15;;;;;;;41.85;31.83;;;;;;;9.17;85.23;94766.78;4847099;29;20038;-88
2021/11/02 17:02:44;;;;;;;37.38;29.27;;;;;;;9.14;85.66;94765.75;4848312;29;20116;-88
2021/11/02 17:05:18;;;;;;;26.20;19.63;;;;;;;9.13;85.54;94758.13;4842668;29;20034;-88